• Join FlightAware (Why Join?)
  • Login
  • US Flag 
07:44AM EDT


 

Airport Tracker/Info


-or-


 

Live Flight TrackerFlight Track Log ✈ UAL3756 ✈ 06-May-2013 ✈ KBTV - KORD

Flight Track Log - Related Links

Times and Time Zones

All times are in EDT time to prevent confusion due to time zone crossing. See the UAL3756 flight status page for this flight to view local times or setup timezone preferences in your user account.

Time Position Orientation Groundspeed Altitude Reporting Facility
EDT Latitude Longitude Course Direction KTS MPH feet Rate Location/Type
11:48AM 44.3614 -73.7373 259° West  Level FlightAware Approximate
11:48AM 44.3686 -73.2764 258° West 274 315 8,800  Level Boston Center
11:49AM 44.3402 -73.8859 259° West  Level FlightAware Approximate
11:49AM 44.3533 -73.3894 259° West 294 338 11,100  Level Boston Center
11:50AM 44.3145 -74.0330 255° West  Level FlightAware Approximate
11:51AM 44.2866 -74.1793 255° West  Level FlightAware Approximate
11:51AM 44.3131 -73.6731 259° West 328 377 16,400  Level Boston Center
11:52AM 44.2601 -74.3260 258° West  Level FlightAware Approximate
11:53AM 44.2374 -74.4739 258° West  Level FlightAware Approximate
11:53AM 44.2900 -73.9081 259° West  Level Estimated
11:54AM 44.2581 -74.0661 255° West 363 418 22,000  Level Boston Center
11:56AM 44.2674 -74.3028 273° West  Level FlightAware Approximate
11:57AM 44.1925 -74.5161 273° West 384 442 26,700  Level Boston Center
11:59AM 44.1472 -74.8183 258° West 397 457 29,300 1,140 Climbing Boston Center
12:00PM 44.1459 -74.9547 255° West  Level FlightAware Approximate
12:01PM 44.1025 -75.1347 259° West 416 479 31,400  Level Boston Center
12:02PM 44.0781 -75.2925 258° West 416 479 32,400 1,020 Climbing Boston Center
12:05PM 43.9833 -75.7833 255° West 410 472 36,000 720 Climbing Toronto Center
12:07PM 43.9561 -76.0628 262° West 427 491 36,000  Level Boston Center
12:09PM 43.9283 -76.4044 264° West 444 511 36,000  Level Boston Center
12:10PM 43.9119 -76.5706 262° West 444 511 36,000  Level Boston Center
12:11PM 43.8833 -76.8167 261° West 440 506 36,000  Level Toronto Center
12:13PM 43.8659 -76.9878 262° West  Level FlightAware Approximate
12:13PM 43.8333 -77.1333 262° West 440 506 36,000  Level Toronto Center
12:15PM 43.8192 -77.3049 264° West  Level FlightAware Approximate
12:16PM 43.7833 -77.6500 262° West 450 518 36,000  Level Toronto Center
12:18PM 43.7617 -77.8199 260° West  Level Estimated
12:20PM 43.7167 -78.3167 262° West 450 518 36,200  Level Toronto Center
12:21PM 43.7000 -78.5000 263° West 440 506 37,200 900 Climbing Toronto Center
12:22PM 43.7225 -78.3471 262° West  Level FlightAware Approximate
12:22PM 43.6833 -78.6667 262° West 430 495 38,000  Level Toronto Center
12:23PM 43.6667 -78.8333 262° West 430 495 38,000  Level Toronto Center
12:25PM 43.6244 -78.8517 260° West  Level Estimated
12:26PM 43.6040 -78.9992 262° West  Level Estimated
12:26PM 43.6558 -79.1530 262° West  Level FlightAware Approximate
12:26PM 43.6000 -79.3333 262° West 440 506 38,000  Level Toronto Center
12:29PM 43.5710 -79.6498 263° West  Level FlightAware Approximate
12:32PM 43.4667 -80.3500 262° West 440 506 38,000  Level Toronto Center
12:33PM 43.4500 -80.5000 261° West 450 518 38,000  Level Toronto Center
12:34PM 43.4333 -80.6667 262° West 450 518 38,000  Level Toronto Center
12:36PM 43.4697 -80.6860 263° West  Level FlightAware Approximate
12:36PM 43.3667 -81.0167 255° West 450 518 38,000  Level Toronto Center
12:37PM 43.4545 -80.8337 262° West  Level FlightAware Approximate
12:38PM 43.4391 -80.9814 262° West  Level FlightAware Approximate
12:38PM 43.3500 -81.2742 265° West 452 520 38,000  Level Cleveland Center
12:38PM 43.3333 -81.3333 249° West 450 518 38,000  Level Toronto Center
12:40PM 43.3017 -81.6158 261° West 459 528 38,000  Level Cleveland Center
12:42PM 43.2503 -81.9542 258° West 454 522 38,000  Level Cleveland Center
12:44PM 43.1935 -82.2615 262° West  Level Estimated
12:44PM 43.1997 -82.2947 262° West 454 522 38,000  Level Cleveland Center
12:46PM 43.1464 -82.6347 258° West 459 528 38,000  Level Cleveland Center
12:47PM 43.1203 -82.8017 258° West 459 528 38,000  Level Cleveland Center
12:48PM 43.0942 -82.9686 258° West 459 528 38,000  Level Cleveland Center
12:49PM 43.0675 -83.1381 258° West 453 521 38,000  Level Cleveland Center
12:51PM 42.9833 -83.5333 254° West 450 518 38,000  Level Toronto Center
12:53PM 42.9614 -83.8006 264° West 448 516 38,000  Level Cleveland Center
12:54PM 42.9439 -83.9697 262° West 453 521 38,000 -780 Level Cleveland Center
12:56PM 42.9150 -84.2781 263° West 460 529 35,900 -1,500 Descending Chicago Center
12:57PM 42.8972 -84.4500 262° West 460 529 33,700 -1,140 Descending Chicago Center
12:59PM 42.8500 -84.9167 262° West 470 541 32,000 -600 Descending Toronto Center
01:00PM 42.8383 -85.0144 261° West 472 543 32,000 -1,560 Level Chicago Center
01:02PM 42.8092 -85.2382 262° West  Level FlightAware Approximate
01:04PM 42.7472 -85.7178 251° West 463 533 24,700  Level Chicago Center
01:06PM 42.7089 -85.9175 255° West  Level FlightAware Approximate
01:07PM 42.6589 -86.2000 251° West 380 437 20,000  Level Chicago Center
01:08PM 42.6325 -86.3408 256° West 383 441 20,000 -540 Level Chicago Center
01:09PM 42.6396 -86.2415 251° West  Level FlightAware Approximate
01:09PM 42.6056 -86.4800 255° West 381 438 19,000  Level Chicago Center
01:11PM 42.5618 -86.6521 256° West  Level FlightAware Approximate
01:11PM 42.5556 -86.7500 256° West 365 420 15,900  Level Chicago Center
01:12PM 42.5144 -86.9003 250° West 358 412 13,500 -2,220 Descending Chicago Center
01:13PM 42.5014 -86.9109 251° West  Level FlightAware Approximate
01:13PM 42.4803 -87.0253 250° West 356 410 11,400  Level Chicago Center
01:15PM 42.4318 -87.1732 251° West  Level FlightAware Approximate
01:15PM 42.4106 -87.2733 251° West 350 403 10,000  Level Chicago Center
01:18PM 42.3167 -87.5500 245° Southwest 354 407 10,000  Level Chicago TRACON
01:19PM 42.2592 -87.6172 221° Southwest 348 400 10,000 -480 Level Chicago Center
01:22PM 42.0486 -87.8383 218° Southwest 290 334 8,200 -540 Descending Chicago Center
01:23PM 41.9883 -87.9003 217° Southwest 277 319 8,000 -120 Descending Chicago Center
01:24PM 41.9500 -87.9667 232° Southwest 293 337 8,000  Level Chicago TRACON
01:25PM 41.9167 -88.0500 242° Southwest 204 235 8,000  Level Chicago TRACON
01:26PM 41.9075 -88.1300 261° West 201 231 8,000  Level Chicago Center
01:27PM 41.9033 -88.2050 266° West 203 234 8,000 -360 Level Chicago Center
01:29PM 41.8981 -88.3544 267° West 203 234 7,000 -780 Descending Chicago Center
01:31PM 41.9667 -88.4167 326° Northwest 186 214 5,100 -660 Descending Chicago TRACON
01:32PM 41.9667 -88.3325 90° East 175 201 5,000 -60 Descending Chicago Center
01:34PM 41.9667 -88.2167 90° East 179 206 5,000 -360 Level Chicago TRACON
01:35PM 41.9667 -88.1500 90° East 176 203 4,100 -1,020 Descending Chicago TRACON
01:36PM 41.9667 -88.0833 90° East 175 201 3,000 -900 Descending Chicago TRACON
01:38PM 41.9667 -87.9833 90° East 131 151 1,500 -840 Descending Chicago TRACON